createdAt,value
2023-05-14T00:00:32.353Z,13.50
2023-05-14T00:03:56.525Z,12.25
2023-05-14T00:07:00.500Z,12.75
2023-05-14T00:10:04.592Z,12.50
2023-05-14T00:13:08.207Z,12.25
2023-05-14T00:16:13.649Z,12.25
2023-05-14T00:19:18.895Z,14.25
2023-05-14T00:22:22.901Z,15.75
2023-05-14T00:25:26.585Z,13.00
2023-05-14T00:28:33.004Z,14.25
2023-05-14T00:31:37.925Z,14.00
2023-05-14T00:34:41.807Z,13.50
2023-05-14T00:37:46.508Z,10.50
2023-05-14T00:40:52.121Z,12.25
2023-05-14T00:43:55.627Z,14.33
2023-05-14T00:47:01.904Z,12.50
2023-05-14T00:50:06.552Z,14.25
2023-05-14T00:53:11.474Z,14.50
2023-05-14T00:56:16.665Z,13.25
2023-05-14T00:59:20.741Z,13.75
2023-05-14T01:02:25.807Z,10.50
2023-05-14T01:05:36.760Z,12.00
2023-05-14T01:08:50.819Z,13.50
2023-05-14T01:12:02.296Z,14.75
2023-05-14T01:15:12.552Z,13.00
2023-05-14T01:18:20.324Z,12.75
2023-05-14T01:21:38.813Z,13.00
2023-05-14T01:24:42.597Z,13.75
2023-05-14T01:27:54.351Z,16.00
2023-05-14T01:31:03.602Z,13.25
2023-05-14T01:34:08.088Z,14.75
2023-05-14T01:37:14.100Z,13.50
2023-05-14T01:40:38.039Z,17.00
2023-05-14T01:43:42.615Z,13.75
2023-05-14T01:46:46.105Z,15.00
2023-05-14T01:49:50.249Z,16.00
2023-05-14T01:52:56.719Z,16.75
2023-05-14T01:56:00.824Z,17.00
2023-05-14T01:59:04.629Z,15.25
2023-05-14T02:02:08.623Z,16.25
2023-05-14T02:05:13.589Z,15.75
2023-05-14T02:08:19.168Z,14.50
2023-05-14T02:11:22.778Z,16.00
2023-05-14T02:14:26.571Z,16.00
2023-05-14T02:17:30.055Z,15.25
2023-05-14T02:20:33.944Z,16.00
2023-05-14T02:23:42.062Z,14.75
2023-05-14T02:26:46.817Z,13.50
2023-05-14T02:29:50.436Z,15.75
2023-05-14T02:32:54.446Z,16.00
2023-05-14T02:35:58.101Z,15.75
2023-05-14T02:39:04.770Z,17.50
2023-05-14T02:42:08.872Z,14.25
2023-05-14T02:45:12.955Z,15.00
2023-05-14T02:48:16.835Z,14.50
2023-05-14T02:51:21.298Z,16.25
2023-05-14T02:54:26.394Z,17.25
2023-05-14T02:57:30.285Z,16.00
2023-05-14T03:00:33.888Z,14.75
2023-05-14T03:03:38.388Z,14.75
2023-05-14T03:06:42.657Z,12.25
2023-05-14T03:09:48.427Z,14.75
2023-05-14T03:12:52.094Z,14.00
2023-05-14T03:15:56.963Z,15.00
2023-05-14T03:19:00.759Z,14.75
2023-05-14T03:22:05.222Z,11.25
2023-05-14T03:25:10.929Z,13.50
2023-05-14T03:28:15.091Z,14.75
2023-05-14T03:31:18.891Z,15.50
2023-05-14T03:34:23.149Z,15.00
2023-05-14T03:37:27.146Z,10.00
2023-05-14T03:40:32.396Z,14.50
2023-05-14T03:43:36.327Z,15.00
2023-05-14T03:46:40.399Z,15.00
2023-05-14T03:49:44.013Z,15.00
2023-05-14T03:52:50.960Z,13.75
2023-05-14T03:55:55.780Z,13.75
2023-05-14T03:58:59.542Z,14.00
2023-05-14T04:02:03.274Z,14.25
2023-05-14T04:05:07.908Z,10.75
2023-05-14T04:08:11.580Z,13.75
2023-05-14T04:11:17.061Z,13.00
2023-05-14T04:14:20.732Z,15.00
2023-05-14T04:17:25.767Z,13.00
2023-05-14T04:20:29.397Z,13.50
2023-05-14T04:23:33.341Z,13.00
2023-05-14T04:26:38.197Z,13.75
2023-05-14T04:29:42.171Z,10.50
2023-05-14T04:32:45.699Z,10.00
2023-05-14T04:35:49.701Z,11.00
2023-05-14T04:38:53.192Z,13.75
2023-05-14T04:41:58.666Z,13.75
2023-05-14T04:45:02.244Z,14.00
2023-05-14T04:48:07.912Z,12.00
2023-05-14T04:51:11.610Z,12.50
2023-05-14T04:54:15.833Z,12.75
2023-05-14T04:57:21.182Z,11.75
2023-05-14T05:00:25.406Z,10.00
2023-05-14T05:03:29.484Z,13.75
2023-05-14T05:06:34.017Z,12.75
2023-05-14T05:09:37.663Z,12.00
2023-05-14T05:12:43.277Z,11.25
2023-05-14T05:16:36.990Z,11.25
2023-05-14T05:19:44.199Z,12.50
2023-05-14T05:22:48.288Z,11.75
2023-05-14T05:25:52.090Z,12.50
2023-05-14T05:28:57.148Z,12.50
2023-05-14T05:32:01.424Z,11.50
2023-05-14T05:35:05.219Z,12.00
2023-05-14T05:38:09.510Z,12.00
2023-05-14T05:41:13.431Z,12.00
2023-05-14T05:44:23.223Z,14.00
2023-05-14T05:47:30.246Z,10.25
2023-05-14T05:50:34.252Z,13.75
2023-05-14T05:53:37.849Z,15.00
2023-05-14T05:56:41.809Z,10.00
2023-05-14T05:59:46.634Z,11.25
2023-05-14T06:02:50.650Z,11.00
2023-05-14T06:05:54.282Z,14.75
2023-05-14T06:08:58.031Z,11.00
2023-05-14T06:12:01.560Z,10.00
2023-05-14T06:15:08.286Z,8.00
2023-05-14T06:18:12.186Z,10.25
2023-05-14T06:21:16.095Z,11.25
2023-05-14T06:24:20.128Z,9.75
2023-05-14T06:27:32.204Z,12.50
2023-05-14T06:34:40.241Z,14.00
2023-05-14T06:37:53.065Z,10.00
2023-05-14T06:41:03.747Z,6.00
2023-05-14T06:44:08.645Z,11.50
2023-05-14T06:47:14.317Z,8.00
2023-05-14T06:50:18.733Z,10.00
2023-05-14T06:53:22.670Z,9.00
2023-05-14T06:56:26.910Z,10.25
2023-05-14T06:59:32.086Z,10.00
2023-05-14T07:02:38.482Z,9.00
2023-05-14T07:11:16.265Z,10.00
2023-05-14T07:14:20.543Z,11.00
2023-05-14T07:17:50.900Z,10.00
2023-05-14T07:20:55.554Z,8.00
2023-05-14T07:23:59.517Z,7.00
2023-05-14T07:27:03.632Z,9.50
2023-05-14T07:30:09.491Z,13.50
2023-05-14T07:33:14.560Z,8.00
2023-05-14T07:36:18.686Z,11.00
2023-05-14T07:39:22.917Z,9.50
2023-05-14T07:42:35.790Z,10.00
2023-05-14T07:45:40.553Z,9.75
2023-05-14T07:48:45.918Z,2.00
2023-05-14T07:51:49.570Z,9.00
2023-05-14T07:54:53.971Z,4.67
2023-05-14T07:57:57.547Z,9.00
2023-05-14T08:01:02.334Z,9.50
2023-05-14T08:04:08.992Z,8.75
2023-05-14T08:07:15.602Z,11.00
2023-05-14T08:10:19.175Z,10.00
2023-05-14T08:13:23.908Z,11.00
2023-05-14T08:16:27.830Z,10.00
2023-05-14T08:19:34.282Z,7.33
2023-05-14T08:22:38.146Z,6.67
2023-05-14T08:25:42.656Z,9.00
2023-05-14T08:28:46.560Z,6.33
2023-05-14T08:31:52.396Z,7.33
2023-05-14T08:34:57.517Z,6.00
2023-05-14T08:38:01.586Z,4.00
2023-05-14T08:41:07.612Z,4.00
2023-05-14T08:44:15.018Z,4.67
2023-05-14T08:47:20.841Z,5.00
2023-05-14T08:50:28.251Z,5.00
2023-05-14T08:53:32.752Z,5.67
2023-05-14T08:56:38.654Z,6.00
2023-05-14T08:59:42.967Z,4.33
2023-05-14T09:02:49.031Z,4.00
2023-05-14T09:05:55.071Z,5.67
2023-05-14T09:08:59.349Z,5.67
2023-05-14T09:12:03.217Z,6.67
2023-05-14T09:15:08.885Z,5.00
2023-05-14T09:18:12.944Z,5.33
2023-05-14T09:21:19.484Z,4.00
2023-05-14T09:24:25.442Z,4.00
2023-05-14T09:27:32.068Z,5.33
2023-05-14T09:30:37.420Z,3.00
2023-05-14T09:33:41.469Z,4.00
2023-05-14T09:36:46.822Z,5.00
2023-05-14T09:39:54.093Z,5.00
2023-05-14T09:43:01.927Z,4.00
2023-05-14T09:46:06.136Z,5.00
2023-05-14T09:49:10.811Z,4.00
2023-05-14T09:52:16.675Z,6.00
2023-05-14T09:55:22.751Z,5.67
2023-05-14T09:58:30.507Z,6.00
2023-05-14T10:01:34.063Z,6.00
2023-05-14T10:04:39.272Z,5.67
2023-05-14T10:08:05.251Z,4.00
2023-05-14T10:11:15.593Z,7.00
2023-05-14T10:14:26.083Z,5.33
2023-05-14T10:17:33.770Z,4.00
2023-05-14T10:20:39.068Z,3.33
2023-05-14T10:23:45.718Z,5.00
2023-05-14T10:26:50.294Z,5.00
2023-05-14T10:29:56.342Z,5.00
2023-05-14T10:33:11.034Z,5.00
2023-05-14T10:36:15.310Z,5.00
2023-05-14T10:39:20.309Z,4.00
2023-05-14T10:42:27.501Z,4.67
2023-05-14T10:45:34.589Z,4.00
2023-05-14T10:48:40.365Z,4.00
2023-05-14T10:51:44.149Z,5.00
2023-05-14T10:54:52.933Z,4.00
2023-05-14T10:58:02.524Z,5.33
2023-05-14T11:01:08.572Z,5.00
2023-05-14T11:04:20.008Z,4.00
2023-05-14T11:07:26.261Z,4.00
2023-05-14T11:10:32.668Z,4.00
2023-05-14T11:13:37.890Z,3.67
2023-05-14T11:16:43.904Z,4.00
2023-05-14T11:19:49.738Z,5.00
2023-05-14T11:22:55.800Z,4.33
2023-05-14T11:26:03.773Z,5.00
2023-05-14T11:29:07.639Z,5.00
2023-05-14T11:32:12.458Z,5.00
2023-05-14T11:35:16.776Z,3.00
2023-05-14T11:38:22.465Z,5.00
2023-05-14T11:41:28.271Z,5.00
2023-05-14T11:44:32.834Z,5.00
2023-05-14T11:47:36.543Z,5.00
2023-05-14T11:50:41.661Z,5.00
2023-05-14T11:53:47.194Z,5.00
2023-05-14T11:56:53.105Z,5.00
2023-05-14T11:59:59.931Z,4.00
2023-05-14T12:03:05.019Z,4.67
2023-05-14T12:06:11.368Z,6.00
2023-05-14T12:09:24.952Z,4.33
2023-05-14T12:12:36.503Z,5.00
2023-05-14T12:15:41.195Z,5.00
2023-05-14T12:18:46.194Z,5.33
2023-05-14T12:21:53.301Z,5.00
2023-05-14T12:24:57.967Z,6.33
2023-05-14T12:28:15.579Z,6.00
2023-05-14T12:31:19.355Z,6.00
2023-05-14T12:34:23.330Z,6.00
2023-05-14T12:37:27.675Z,5.00
2023-05-14T12:40:33.143Z,7.00
2023-05-14T12:43:38.598Z,0.00
2023-05-14T12:46:45.491Z,6.00
2023-05-14T12:49:52.073Z,6.33
2023-05-14T12:52:56.169Z,7.67
2023-05-14T12:56:01.040Z,6.00
2023-05-14T12:59:07.125Z,7.00
2023-05-14T13:02:10.930Z,8.00
2023-05-14T13:05:15.078Z,7.00
2023-05-14T13:08:21.535Z,8.00
2023-05-14T13:11:25.833Z,7.00
2023-05-14T13:14:31.020Z,6.00
2023-05-14T13:17:35.472Z,7.00
2023-05-14T13:20:39.965Z,6.00
2023-05-14T13:23:45.713Z,4.00
2023-05-14T13:26:49.439Z,7.67
2023-05-14T13:29:54.752Z,7.67
2023-05-14T13:32:59.267Z,7.33
2023-05-14T13:36:04.465Z,8.00
2023-05-14T13:39:07.992Z,9.00
2023-05-14T13:42:13.159Z,7.00
2023-05-14T13:45:18.285Z,7.33
2023-05-14T13:48:22.633Z,8.00
2023-05-14T13:51:26.298Z,8.00
2023-05-14T13:54:30.411Z,8.00
2023-05-14T13:57:34.592Z,8.00
2023-05-14T14:00:41.640Z,9.00
2023-05-14T14:03:45.222Z,9.00
2023-05-14T14:06:49.375Z,7.67
2023-05-14T14:09:53.135Z,8.00
2023-05-14T14:12:57.232Z,8.33
2023-05-14T14:16:03.217Z,8.00
2023-05-14T14:19:09.929Z,7.00
2023-05-14T14:22:16.417Z,9.00
2023-05-14T14:25:28.238Z,8.33
2023-05-14T14:28:32.386Z,8.67
2023-05-14T14:31:37.914Z,10.00
2023-05-14T14:34:41.632Z,9.00
2023-05-14T14:37:49.318Z,5.00
2023-05-14T14:40:53.095Z,8.00
2023-05-14T14:43:57.490Z,8.00
2023-05-14T14:47:02.534Z,9.00
2023-05-14T14:50:08.063Z,9.33
2023-05-14T14:53:11.849Z,9.00
2023-05-14T14:56:16.060Z,8.67
2023-05-14T14:59:19.777Z,10.00
2023-05-14T15:02:29.582Z,10.00
2023-05-14T15:05:34.714Z,8.67
2023-05-14T15:08:39.438Z,8.00
2023-05-14T15:11:43.057Z,8.00
2023-05-14T15:14:47.179Z,9.67
2023-05-14T15:17:52.453Z,9.00
2023-05-14T15:20:57.744Z,8.00
2023-05-14T15:24:01.175Z,8.33
2023-05-14T15:27:07.626Z,8.67
2023-05-14T15:30:12.468Z,7.00
2023-05-14T15:33:19.567Z,10.33
2023-05-14T15:36:23.333Z,9.67
2023-05-14T15:39:28.028Z,7.67
2023-05-14T15:42:33.173Z,10.00
2023-05-14T15:45:37.254Z,9.33
2023-05-14T15:48:45.420Z,8.33
2023-05-14T15:51:51.076Z,7.67
2023-05-14T15:54:56.258Z,10.00
2023-05-14T15:58:00.681Z,9.33
2023-05-14T16:01:04.376Z,10.00
2023-05-14T16:04:10.179Z,11.67
2023-05-14T16:07:14.792Z,13.00
2023-05-14T16:10:22.963Z,7.00
2023-05-14T16:13:27.412Z,9.67
2023-05-14T16:16:31.992Z,12.33
2023-05-14T16:19:37.064Z,12.33
2023-05-14T16:22:41.237Z,11.00
2023-05-14T16:25:51.036Z,11.33
2023-05-14T16:28:55.025Z,10.67
2023-05-14T16:31:58.792Z,13.00
2023-05-14T16:35:04.551Z,11.33
2023-05-14T16:38:09.190Z,14.00
2023-05-14T16:41:13.538Z,16.00
2023-05-14T16:44:18.166Z,22.33
2023-05-14T16:47:22.047Z,10.67
2023-05-14T16:50:27.597Z,9.67
2023-05-14T16:53:31.716Z,10.00
2023-05-14T16:56:35.182Z,10.00
2023-05-14T16:59:39.346Z,9.00
2023-05-14T17:02:43.672Z,10.00
2023-05-14T17:05:51.777Z,14.33
2023-05-14T17:08:56.658Z,20.00
2023-05-14T17:12:00.743Z,13.00
2023-05-14T17:15:05.673Z,10.00
2023-05-14T17:18:12.158Z,12.00
2023-05-14T17:21:17.603Z,14.00
2023-05-14T17:24:21.738Z,20.00
2023-05-14T17:27:26.404Z,17.00
2023-05-14T17:30:30.845Z,12.00
2023-05-14T17:33:35.658Z,13.00
2023-05-14T17:36:43.110Z,12.00
2023-05-14T17:39:46.936Z,9.00
2023-05-14T17:42:50.477Z,9.33
2023-05-14T17:45:54.986Z,9.67
2023-05-14T17:48:59.445Z,11.00
2023-05-14T17:52:04.941Z,18.67
2023-05-14T17:55:09.433Z,20.50
2023-05-14T17:58:16.317Z,24.00
2023-05-14T18:01:20.473Z,12.67
2023-05-14T18:04:24.376Z,14.00
2023-05-14T18:07:29.847Z,14.00
2023-05-14T18:10:33.768Z,13.00
2023-05-14T18:13:37.337Z,12.33
2023-05-14T18:16:41.395Z,12.33
2023-05-14T18:19:53.249Z,13.00
2023-05-14T18:22:58.708Z,13.67
2023-05-14T18:26:02.830Z,14.33
2023-05-14T18:29:07.544Z,12.00
2023-05-14T18:32:11.130Z,11.00
2023-05-14T18:35:15.156Z,10.67
2023-05-14T18:38:20.073Z,13.00
2023-05-14T18:41:25.765Z,10.00
2023-05-14T18:44:29.325Z,9.00
2023-05-14T18:47:34.223Z,11.00
2023-05-14T18:50:42.289Z,10.00
2023-05-14T18:53:48.343Z,8.67
2023-05-14T18:56:52.281Z,8.00
2023-05-14T18:59:58.301Z,9.00
2023-05-14T19:03:03.620Z,7.67
2023-05-14T19:06:09.096Z,10.00
2023-05-14T19:09:31.087Z,9.67
2023-05-14T19:15:54.150Z,9.67
2023-05-14T19:18:59.557Z,7.33
2023-05-14T19:25:52.034Z,9.00
2023-05-14T19:29:13.398Z,11.00
2023-05-14T19:32:36.433Z,9.00
2023-05-14T19:35:41.448Z,9.00
2023-05-14T19:38:57.984Z,9.00
2023-05-14T19:42:05.365Z,13.33
2023-05-14T19:45:10.468Z,14.00
2023-05-14T19:48:16.082Z,13.00
2023-05-14T19:51:22.788Z,13.00
2023-05-14T19:54:26.860Z,13.00
2023-05-14T19:57:35.774Z,9.00
2023-05-14T20:00:39.985Z,12.00
2023-05-14T20:03:43.838Z,13.33
2023-05-14T20:06:53.847Z,15.00
2023-05-14T20:09:58.147Z,13.00
2023-05-14T20:13:03.716Z,10.33
2023-05-14T20:16:18.005Z,13.33
2023-05-14T20:19:22.511Z,11.67
2023-05-14T20:22:26.755Z,12.67
2023-05-14T20:25:35.637Z,11.67
2023-05-14T20:28:43.522Z,11.67
2023-05-14T20:31:48.793Z,12.33
2023-05-14T20:34:52.384Z,13.00
2023-05-14T20:38:01.088Z,22.50
2023-05-14T20:41:07.937Z,22.00
2023-05-14T20:44:13.324Z,16.50
2023-05-14T20:47:21.664Z,15.00
2023-05-14T20:50:39.340Z,13.50
2023-05-14T20:53:42.955Z,13.33
2023-05-14T20:56:50.481Z,13.00
2023-05-14T21:00:24.994Z,14.00
2023-05-14T21:03:31.659Z,13.00
2023-05-14T21:06:35.993Z,17.00
2023-05-14T21:09:40.266Z,14.00
2023-05-14T21:12:44.907Z,12.00
2023-05-14T21:15:50.774Z,12.67
2023-05-14T21:18:55.240Z,8.67
2023-05-14T21:21:59.216Z,10.33
2023-05-14T21:28:30.152Z,14.33
2023-05-14T21:31:36.318Z,13.33
2023-05-14T21:34:40.504Z,13.67
2023-05-14T21:37:44.775Z,14.33
2023-05-14T21:40:49.681Z,19.00
2023-05-14T21:43:53.413Z,17.00
2023-05-14T21:46:58.699Z,18.75
2023-05-14T21:50:02.152Z,14.33
2023-05-14T21:53:07.555Z,9.67
2023-05-14T21:56:11.241Z,8.33
2023-05-14T21:59:15.247Z,11.67
2023-05-14T22:02:20.389Z,8.67
2023-05-14T22:05:26.039Z,10.00
2023-05-14T22:08:30.805Z,15.00
2023-05-14T22:11:34.689Z,12.33
2023-05-14T22:14:38.695Z,12.33
2023-05-14T22:17:44.134Z,9.00
2023-05-14T22:20:47.770Z,9.00
2023-05-14T22:23:52.139Z,8.00
2023-05-14T22:26:55.836Z,9.33
2023-05-14T22:29:59.857Z,10.33
2023-05-14T22:33:05.012Z,13.00
2023-05-14T22:36:10.606Z,8.33
2023-05-14T22:39:14.261Z,9.00
2023-05-14T22:42:20.306Z,9.00
2023-05-14T22:45:24.183Z,8.00
2023-05-14T22:48:29.804Z,8.00
2023-05-14T22:51:33.688Z,9.33
2023-05-14T22:54:37.699Z,7.67
2023-05-14T22:57:41.373Z,10.33
2023-05-14T23:00:47.984Z,7.67
2023-05-14T23:03:52.876Z,10.00
2023-05-14T23:06:57.080Z,11.00
2023-05-14T23:10:00.871Z,11.00
2023-05-14T23:13:05.466Z,11.00
2023-05-14T23:16:09.349Z,10.00
2023-05-14T23:19:14.917Z,11.50
2023-05-14T23:22:18.841Z,12.00
2023-05-14T23:25:23.136Z,13.00
2023-05-14T23:28:27.243Z,12.50
2023-05-14T23:31:31.507Z,12.75
2023-05-14T23:34:36.530Z,10.00
2023-05-14T23:37:47.093Z,9.67
2023-05-14T23:40:50.900Z,11.67
2023-05-14T23:43:55.461Z,10.50
2023-05-14T23:46:59.415Z,11.00
2023-05-14T23:50:05.665Z,11.50
2023-05-14T23:53:09.573Z,10.00
2023-05-14T23:56:13.895Z,10.75
2023-05-14T23:59:17.515Z,12.00
